sensor_id;sensor_type;location;lat;lon;timestamp;pressure;altitude;pressure_sealevel;temperature;humidity
31357;BME280;60001;48.404;11.738;2023-05-09T00:00:14;96672.75;;;13.88;58.38
31357;BME280;60001;48.404;11.738;2023-05-09T00:01:45;96677.28;;;13.98;57.95
31357;BME280;60001;48.404;11.738;2023-05-09T00:03:17;96672.47;;;13.90;57.74
31357;BME280;60001;48.404;11.738;2023-05-09T00:04:50;96677.00;;;13.89;58.22
31357;BME280;60001;48.404;11.738;2023-05-09T00:06:21;96672.75;;;13.88;58.04
31357;BME280;60001;48.404;11.738;2023-05-09T00:07:52;96669.56;;;13.86;57.92
31357;BME280;60001;48.404;11.738;2023-05-09T00:09:24;96667.41;;;13.83;58.50
31357;BME280;60001;48.404;11.738;2023-05-09T00:10:55;96672.19;;;13.81;57.97
31357;BME280;60001;48.404;11.738;2023-05-09T00:12:27;96667.44;;;13.78;58.38
31357;BME280;60001;48.404;11.738;2023-05-09T00:13:59;96670.09;;;13.78;58.08
31357;BME280;60001;48.404;11.738;2023-05-09T00:15:30;96665.56;;;13.79;57.70
31357;BME280;60001;48.404;11.738;2023-05-09T00:17:02;96667.16;;;13.80;57.74
31357;BME280;60001;48.404;11.738;2023-05-09T00:18:34;96638.19;;;13.58;57.58
31357;BME280;60001;48.404;11.738;2023-05-09T00:20:08;96667.44;;;13.78;57.46
31357;BME280;60001;48.404;11.738;2023-05-09T00:21:41;96661.84;;;13.75;57.01
31357;BME280;60001;48.404;11.738;2023-05-09T00:23:13;96664.22;;;13.71;57.37
31357;BME280;60001;48.404;11.738;2023-05-09T00:24:45;96662.63;;;13.70;56.91
31357;BME280;60001;48.404;11.738;2023-05-09T00:26:16;96648.78;;;13.53;57.07
31357;BME280;60001;48.404;11.738;2023-05-09T00:27:48;96655.16;;;13.62;57.11
31357;BME280;60001;48.404;11.738;2023-05-09T00:29:20;96658.91;;;13.66;56.91
31357;BME280;60001;48.404;11.738;2023-05-09T00:30:52;96657.59;;;13.63;57.01
31357;BME280;60001;48.404;11.738;2023-05-09T00:32:23;96658.38;;;13.64;56.22
31357;BME280;60001;48.404;11.738;2023-05-09T00:33:56;96620.31;;;13.28;56.61
31357;BME280;60001;48.404;11.738;2023-05-09T00:35:28;96655.72;;;13.64;56.58
31357;BME280;60001;48.404;11.738;2023-05-09T00:37:01;96657.81;;;13.57;57.17
31357;BME280;60001;48.404;11.738;2023-05-09T00:38:33;96651.19;;;13.49;56.81
31357;BME280;60001;48.404;11.738;2023-05-09T00:40:05;96654.13;;;13.58;56.00
31357;BME280;60001;48.404;11.738;2023-05-09T00:41:38;96654.91;;;13.58;55.21
31357;BME280;60001;48.404;11.738;2023-05-09T00:43:10;96649.06;;;13.56;55.63
31357;BME280;60001;48.404;11.738;2023-05-09T00:44:42;96655.44;;;13.60;55.35
31357;BME280;60001;48.404;11.738;2023-05-09T00:46:13;96653.56;;;13.61;55.66
31357;BME280;60001;48.404;11.738;2023-05-09T00:47:45;96648.81;;;13.58;55.19
31357;BME280;60001;48.404;11.738;2023-05-09T00:49:19;96646.16;;;13.58;55.04
31357;BME280;60001;48.404;11.738;2023-05-09T00:50:50;96642.41;;;13.43;55.29
31357;BME280;60001;48.404;11.738;2023-05-09T00:52:23;96641.34;;;13.55;55.69
31357;BME280;60001;48.404;11.738;2023-05-09T00:53:56;96637.94;;;13.59;55.04
31357;BME280;60001;48.404;11.738;2023-05-09T00:55:26;96640.31;;;13.51;54.86
31357;BME280;60001;48.404;11.738;2023-05-09T00:56:58;96644.81;;;13.55;55.19
31357;BME280;60001;48.404;11.738;2023-05-09T00:58:30;96636.31;;;13.53;54.86
31357;BME280;60001;48.404;11.738;2023-05-09T01:00:02;96641.66;;;13.58;55.30
31357;BME280;60001;48.404;11.738;2023-05-09T01:01:34;96633.94;;;13.52;54.99
31357;BME280;60001;48.404;11.738;2023-05-09T01:03:06;96632.09;;;13.67;53.75
31357;BME280;60001;48.404;11.738;2023-05-09T01:04:41;96622.81;;;13.65;54.36
31357;BME280;60001;48.404;11.738;2023-05-09T01:06:19;96619.91;;;13.66;54.27
31357;BME280;60001;48.404;11.738;2023-05-09T01:08:01;96621.22;;;13.69;53.59
31357;BME280;60001;48.404;11.738;2023-05-09T01:09:42;96626.22;;;13.45;54.33
31357;BME280;60001;48.404;11.738;2023-05-09T01:11:25;96624.13;;;13.62;53.61
31357;BME280;60001;48.404;11.738;2023-05-09T01:13:03;96618.28;;;13.60;54.01
31357;BME280;60001;48.404;11.738;2023-05-09T01:14:42;96621.47;;;13.62;54.36
31357;BME280;60001;48.404;11.738;2023-05-09T01:16:25;96613.53;;;13.67;53.29
31357;BME280;60001;48.404;11.738;2023-05-09T01:18:07;96612.97;;;13.60;53.53
31357;BME280;60001;48.404;11.738;2023-05-09T01:20:00;96605.00;;;13.55;53.88
31357;BME280;60001;48.404;11.738;2023-05-09T01:21:39;96611.94;;;13.56;53.55
31357;BME280;60001;48.404;11.738;2023-05-09T01:23:40;96594.91;;;13.42;53.78
31357;BME280;60001;48.404;11.738;2023-05-09T01:25:45;96608.19;;;13.47;52.93
31357;BME280;60001;48.404;11.738;2023-05-09T01:27:24;96606.06;;;13.54;53.03
31357;BME280;60001;48.404;11.738;2023-05-09T01:29:33;96608.47;;;13.51;52.82
31357;BME280;60001;48.404;11.738;2023-05-09T01:31:07;96604.19;;;13.44;53.33
31357;BME280;60001;48.404;11.738;2023-05-09T01:32:42;96599.69;;;13.45;53.05
31357;BME280;60001;48.404;11.738;2023-05-09T01:34:17;96603.13;;;13.46;53.14
31357;BME280;60001;48.404;11.738;2023-05-09T01:35:53;96605.25;;;13.43;53.14
31357;BME280;60001;48.404;11.738;2023-05-09T01:37:31;96612.66;;;13.41;53.20
31357;BME280;60001;48.404;11.738;2023-05-09T01:39:05;96604.19;;;13.39;53.92
31357;BME280;60001;48.404;11.738;2023-05-09T01:40:40;96605.25;;;13.38;53.73
31357;BME280;60001;48.404;11.738;2023-05-09T01:42:17;96584.00;;;13.23;53.51
31357;BME280;60001;48.404;11.738;2023-05-09T01:43:51;96592.47;;;13.25;53.70
31357;BME280;60001;48.404;11.738;2023-05-09T01:45:27;96585.06;;;13.22;53.87
31357;BME280;60001;48.404;11.738;2023-05-09T01:47:00;96606.28;;;13.32;53.59
31357;BME280;60001;48.404;11.738;2023-05-09T01:48:35;96599.41;;;13.31;53.49
31357;BME280;60001;48.404;11.738;2023-05-09T01:50:11;96603.09;;;13.30;53.56
31357;BME280;60001;48.404;11.738;2023-05-09T01:51:43;96590.59;;;13.21;53.33
31357;BME280;60001;48.404;11.738;2023-05-09T01:53:16;96610.03;;;13.36;53.06
31357;BME280;60001;48.404;11.738;2023-05-09T01:54:50;96607.63;;;13.30;53.28
31357;BME280;60001;48.404;11.738;2023-05-09T01:56:22;96603.63;;;13.27;52.99
31357;BME280;60001;48.404;11.738;2023-05-09T01:57:57;96602.00;;;13.21;52.65
31357;BME280;60001;48.404;11.738;2023-05-09T01:59:32;96601.75;;;13.28;52.95
31357;BME280;60001;48.404;11.738;2023-05-09T02:01:05;96589.22;;;13.13;53.51
31357;BME280;60001;48.404;11.738;2023-05-09T02:02:38;96609.13;;;13.15;53.79
31357;BME280;60001;48.404;11.738;2023-05-09T02:04:10;96604.63;;;13.16;53.86
31357;BME280;60001;48.404;11.738;2023-05-09T02:05:44;96611.22;;;13.13;53.57
31357;BME280;60001;48.404;11.738;2023-05-09T02:07:19;96603.28;;;13.13;53.52
31357;BME280;60001;48.404;11.738;2023-05-09T02:08:52;96602.72;;;13.06;53.90
31357;BME280;60001;48.404;11.738;2023-05-09T02:10:25;96606.72;;;13.09;53.76
31357;BME280;60001;48.404;11.738;2023-05-09T02:11:57;96584.41;;;13.00;53.58
31357;BME280;60001;48.404;11.738;2023-05-09T02:13:29;96599.28;;;13.11;53.72
31357;BME280;60001;48.404;11.738;2023-05-09T02:15:01;96595.56;;;13.07;54.05
31357;BME280;60001;48.404;11.738;2023-05-09T02:16:33;96603.50;;;13.02;54.31
31357;BME280;60001;48.404;11.738;2023-05-09T02:18:05;96598.72;;;12.99;54.63
31357;BME280;60001;48.404;11.738;2023-05-09T02:19:37;96591.56;;;12.99;54.63
31357;BME280;60001;48.404;11.738;2023-05-09T02:21:09;96567.66;;;12.84;55.17
31357;BME280;60001;48.404;11.738;2023-05-09T02:22:42;96593.91;;;12.90;55.30
31357;BME280;60001;48.404;11.738;2023-05-09T02:24:14;96588.34;;;12.92;55.20
31357;BME280;60001;48.404;11.738;2023-05-09T02:25:45;96585.44;;;12.88;55.24
31357;BME280;60001;48.404;11.738;2023-05-09T02:27:18;96597.09;;;12.87;55.76
31357;BME280;60001;48.404;11.738;2023-05-09T02:28:51;96569.72;;;12.72;55.55
31357;BME280;60001;48.404;11.738;2023-05-09T02:30:25;96579.50;;;12.71;55.31
31357;BME280;60001;48.404;11.738;2023-05-09T02:32:00;96587.56;;;12.86;54.94
31357;BME280;60001;48.404;11.738;2023-05-09T02:33:36;96581.97;;;12.83;54.98
31357;BME280;60001;48.404;11.738;2023-05-09T02:35:10;96568.94;;;12.76;55.15
31357;BME280;60001;48.404;11.738;2023-05-09T02:36:42;96574.28;;;12.81;54.89
31357;BME280;60001;48.404;11.738;2023-05-09T02:38:14;96579.09;;;12.95;54.52
31357;BME280;60001;48.404;11.738;2023-05-09T02:39:47;96570.00;;;12.75;55.48
31357;BME280;60001;48.404;11.738;2023-05-09T02:41:18;96588.34;;;12.87;55.38
31357;BME280;60001;48.404;11.738;2023-05-09T02:42:49;96582.25;;;12.92;55.04
31357;BME280;60001;48.404;11.738;2023-05-09T02:44:21;96584.41;;;12.95;54.72
31357;BME280;60001;48.404;11.738;2023-05-09T02:45:52;96587.81;;;12.90;54.64
31357;BME280;60001;48.404;11.738;2023-05-09T02:47:25;96583.03;;;12.82;55.24
31357;BME280;60001;48.404;11.738;2023-05-09T02:48:56;96588.28;;;12.77;56.04
31357;BME280;60001;48.404;11.738;2023-05-09T02:50:28;96587.75;;;12.75;56.06
31357;BME280;60001;48.404;11.738;2023-05-09T02:51:59;96581.66;;;12.79;56.02
31357;BME280;60001;48.404;11.738;2023-05-09T02:53:30;96588.81;;;12.79;55.52
31357;BME280;60001;48.404;11.738;2023-05-09T02:55:03;96572.13;;;12.73;56.12
31357;BME280;60001;48.404;11.738;2023-05-09T02:56:36;96563.09;;;12.69;57.16
31357;BME280;60001;48.404;11.738;2023-05-09T02:58:07;96576.63;;;12.73;57.94
31357;BME280;60001;48.404;11.738;2023-05-09T02:59:39;96573.47;;;12.81;56.95
31357;BME280;60001;48.404;11.738;2023-05-09T03:01:11;96559.34;;;12.65;57.29
31357;BME280;60001;48.404;11.738;2023-05-09T03:02:44;96571.59;;;12.76;57.67
31357;BME280;60001;48.404;11.738;2023-05-09T03:04:16;96553.81;;;12.72;57.27
31357;BME280;60001;48.404;11.738;2023-05-09T03:05:49;96577.19;;;12.80;58.96
31357;BME280;60001;48.404;11.738;2023-05-09T03:07:20;96572.13;;;12.73;57.86
31357;BME280;60001;48.404;11.738;2023-05-09T03:08:52;96562.56;;;12.72;57.44
31357;BME280;60001;48.404;11.738;2023-05-09T03:10:23;96570.50;;;12.67;57.26
31357;BME280;60001;48.404;11.738;2023-05-09T03:11:55;96566.75;;;12.63;56.88
31357;BME280;60001;48.404;11.738;2023-05-09T03:13:26;96564.06;;;12.53;57.38
31357;BME280;60001;48.404;11.738;2023-05-09T03:14:58;96572.50;;;12.50;57.12
31357;BME280;60001;48.404;11.738;2023-05-09T03:16:30;96569.38;;;12.53;57.25
31357;BME280;60001;48.404;11.738;2023-05-09T03:18:03;96561.91;;;12.50;57.52
31357;BME280;60001;48.404;11.738;2023-05-09T03:19:34;96570.66;;;12.45;57.90
31357;BME280;60001;48.404;11.738;2023-05-09T03:21:06;96566.13;;;12.41;58.31
31357;BME280;60001;48.404;11.738;2023-05-09T03:22:38;96569.25;;;12.38;57.76
31357;BME280;60001;48.404;11.738;2023-05-09T03:24:10;96565.81;;;12.32;58.03
31357;BME280;60001;48.404;11.738;2023-05-09T03:25:41;96562.59;;;12.30;58.09
31357;BME280;60001;48.404;11.738;2023-05-09T03:27:13;96550.16;;;12.25;58.10
31357;BME280;60001;48.404;11.738;2023-05-09T03:28:45;96557.59;;;12.33;57.31
31357;BME280;60001;48.404;11.738;2023-05-09T03:30:18;96563.16;;;12.32;57.37
31357;BME280;60001;48.404;11.738;2023-05-09T03:31:50;96548.25;;;12.21;58.01
31357;BME280;60001;48.404;11.738;2023-05-09T03:33:23;96558.34;;;12.24;58.13
31357;BME280;60001;48.404;11.738;2023-05-09T03:34:55;96548.81;;;12.28;58.14
31357;BME280;60001;48.404;11.738;2023-05-09T03:36:26;96557.03;;;12.26;57.78
31357;BME280;60001;48.404;11.738;2023-05-09T03:37:58;96550.41;;;12.24;57.66
31357;BME280;60001;48.404;11.738;2023-05-09T03:39:30;96525.19;;;12.11;57.95
31357;BME280;60001;48.404;11.738;2023-05-09T03:41:02;96541.88;;;12.17;57.88
31357;BME280;60001;48.404;11.738;2023-05-09T03:42:34;96539.78;;;12.19;57.60
31357;BME280;60001;48.404;11.738;2023-05-09T03:44:06;96539.78;;;12.19;57.52
31357;BME280;60001;48.404;11.738;2023-05-09T03:45:37;96540.28;;;12.16;58.52
31357;BME280;60001;48.404;11.738;2023-05-09T03:47:08;96543.94;;;12.10;58.52
31357;BME280;60001;48.404;11.738;2023-05-09T03:48:43;96548.16;;;12.05;58.81
31357;BME280;60001;48.404;11.738;2023-05-09T03:50:15;96546.34;;;12.11;58.35
31357;BME280;60001;48.404;11.738;2023-05-09T03:51:47;96547.16;;;12.12;58.28
31357;BME280;60001;48.404;11.738;2023-05-09T03:53:19;96546.88;;;12.13;58.27
31357;BME280;60001;48.404;11.738;2023-05-09T03:54:51;96545.28;;;12.12;58.79
31357;BME280;60001;48.404;11.738;2023-05-09T03:56:22;96549.53;;;12.13;58.87
31357;BME280;60001;48.404;11.738;2023-05-09T03:57:55;96547.94;;;12.12;58.17
31357;BME280;60001;48.404;11.738;2023-05-09T03:59:26;96547.91;;;12.07;58.15
31357;BME280;60001;48.404;11.738;2023-05-09T04:00:57;96538.91;;;12.08;58.18
31357;BME280;60001;48.404;11.738;2023-05-09T04:02:29;96551.66;;;12.11;57.77
31357;BME280;60001;48.404;11.738;2023-05-09T04:04:02;96549.53;;;12.13;57.80
31357;BME280;60001;48.404;11.738;2023-05-09T04:05:34;96552.44;;;12.12;57.65
31357;BME280;60001;48.404;11.738;2023-05-09T04:07:05;96561.44;;;12.11;58.36
31357;BME280;60001;48.404;11.738;2023-05-09T04:08:37;96564.31;;;12.04;58.93
31357;BME280;60001;48.404;11.738;2023-05-09T04:10:08;96563.78;;;12.07;58.97
31357;BME280;60001;48.404;11.738;2023-05-09T04:11:40;96552.84;;;11.93;58.89
31357;BME280;60001;48.404;11.738;2023-05-09T04:13:12;96565.31;;;12.03;59.21
31357;BME280;60001;48.404;11.738;2023-05-09T04:14:44;96558.66;;;11.90;58.84
31357;BME280;60001;48.404;11.738;2023-05-09T04:16:14;96565.31;;;11.98;58.98
31357;BME280;60001;48.404;11.738;2023-05-09T04:17:46;96566.91;;;11.99;58.74
31357;BME280;60001;48.404;11.738;2023-05-09T04:19:18;96564.31;;;12.04;58.40
31357;BME280;60001;48.404;11.738;2023-05-09T04:20:50;96570.09;;;12.01;59.36
31357;BME280;60001;48.404;11.738;2023-05-09T04:22:21;96571.03;;;11.85;59.83
31357;BME280;60001;48.404;11.738;2023-05-09T04:23:52;96571.09;;;11.95;59.38
31357;BME280;60001;48.404;11.738;2023-05-09T04:25:23;96570.31;;;11.94;59.57
31357;BME280;60001;48.404;11.738;2023-05-09T04:26:56;96564.53;;;11.97;59.25
31357;BME280;60001;48.404;11.738;2023-05-09T04:28:27;96571.94;;;12.00;59.27
31357;BME280;60001;48.404;11.738;2023-05-09T04:29:59;96572.69;;;11.96;58.88
31357;BME280;60001;48.404;11.738;2023-05-09T04:31:31;96571.13;;;12.00;58.46
31357;BME280;60001;48.404;11.738;2023-05-09T04:33:03;96566.91;;;11.99;58.71
31357;BME280;60001;48.404;11.738;2023-05-09T04:34:35;96574.78;;;11.94;59.25
31357;BME280;60001;48.404;11.738;2023-05-09T04:36:07;96564.78;;;12.01;58.71
31357;BME280;60001;48.404;11.738;2023-05-09T04:37:42;96552.28;;;11.91;58.90
31357;BME280;60001;48.404;11.738;2023-05-09T04:39:14;96563.47;;;11.98;59.20
31357;BME280;60001;48.404;11.738;2023-05-09T04:40:45;96563.25;;;12.05;59.25
31357;BME280;60001;48.404;11.738;2023-05-09T04:42:17;96565.81;;;11.95;58.90
31357;BME280;60001;48.404;11.738;2023-05-09T04:43:49;96563.13;;;11.90;59.38
31357;BME280;60001;48.404;11.738;2023-05-09T04:45:21;96569.25;;;11.95;58.73
31357;BME280;60001;48.404;11.738;2023-05-09T04:46:53;96559.50;;;12.01;58.58
31357;BME280;60001;48.404;11.738;2023-05-09T04:48:24;96561.88;;;12.02;58.63
31357;BME280;60001;48.404;11.738;2023-05-09T04:49:57;96554.72;;;11.98;59.64
31357;BME280;60001;48.404;11.738;2023-05-09T04:51:28;96557.88;;;11.95;59.07
31357;BME280;60001;48.404;11.738;2023-05-09T04:53:00;96547.75;;;11.87;59.66
31357;BME280;60001;48.404;11.738;2023-05-09T04:54:31;96545.16;;;11.92;58.74
31357;BME280;60001;48.404;11.738;2023-05-09T04:56:02;96533.50;;;11.93;59.24
31357;BME280;60001;48.404;11.738;2023-05-09T04:57:34;96551.06;;;12.04;58.97
31357;BME280;60001;48.404;11.738;2023-05-09T04:59:06;96547.09;;;12.06;58.45
31357;BME280;60001;48.404;11.738;2023-05-09T05:00:37;96548.91;;;12.01;58.20
31357;BME280;60001;48.404;11.738;2023-05-09T05:02:09;96545.78;;;12.04;58.31
31357;BME280;60001;48.404;11.738;2023-05-09T05:03:42;96549.22;;;12.04;58.07
31357;BME280;60001;48.404;11.738;2023-05-09T05:05:15;96548.88;;;11.96;58.07
31357;BME280;60001;48.404;11.738;2023-05-09T05:06:47;96552.34;;;12.01;58.21
31357;BME280;60001;48.404;11.738;2023-05-09T05:08:18;96555.25;;;12.00;58.65
31357;BME280;60001;48.404;11.738;2023-05-09T05:09:50;96554.78;;;12.08;57.99
31357;BME280;60001;48.404;11.738;2023-05-09T05:11:21;96507.34;;;11.64;58.49
31357;BME280;60001;48.404;11.738;2023-05-09T05:12:52;96553.03;;;12.19;58.00
31357;BME280;60001;48.404;11.738;2023-05-09T05:14:24;96547.47;;;12.20;58.55
31357;BME280;60001;48.404;11.738;2023-05-09T05:15:56;96554.59;;;12.20;58.02
31357;BME280;60001;48.404;11.738;2023-05-09T05:17:28;96532.59;;;12.14;58.23
31357;BME280;60001;48.404;11.738;2023-05-09T05:19:00;96546.97;;;12.28;57.60
31357;BME280;60001;48.404;11.738;2023-05-09T05:20:33;96553.31;;;12.27;57.89
31357;BME280;60001;48.404;11.738;2023-05-09T05:22:05;96546.13;;;12.23;57.97
31357;BME280;60001;48.404;11.738;2023-05-09T05:23:37;96546.72;;;12.30;58.71
31357;BME280;60001;48.404;11.738;2023-05-09T05:25:09;96546.25;;;12.38;59.02
31357;BME280;60001;48.404;11.738;2023-05-09T05:26:41;96544.97;;;12.46;58.86
31357;BME280;60001;48.404;11.738;2023-05-09T05:28:12;96528.50;;;12.39;57.91
31357;BME280;60001;48.404;11.738;2023-05-09T05:29:44;96542.16;;;12.68;57.64
31357;BME280;60001;48.404;11.738;2023-05-09T05:31:16;96520.66;;;12.64;57.36
31357;BME280;60001;48.404;11.738;2023-05-09T05:32:48;96507.88;;;12.51;55.93
31357;BME280;60001;48.404;11.738;2023-05-09T05:34:19;96545.91;;;12.82;56.13
31357;BME280;60001;48.404;11.738;2023-05-09T05:35:54;96525.47;;;12.67;55.87
31357;BME280;60001;48.404;11.738;2023-05-09T05:37:25;96527.81;;;12.63;56.20
31357;BME280;60001;48.404;11.738;2023-05-09T05:38:57;96542.22;;;12.83;57.74
31357;BME280;60001;48.404;11.738;2023-05-09T05:40:29;96542.53;;;12.97;57.71
31357;BME280;60001;48.404;11.738;2023-05-09T05:42:01;96539.34;;;13.00;56.30
31357;BME280;60001;48.404;11.738;2023-05-09T05:43:32;96543.91;;;13.20;56.14
31357;BME280;60001;48.404;11.738;2023-05-09T05:45:05;96543.94;;;13.25;56.08
31357;BME280;60001;48.404;11.738;2023-05-09T05:46:37;96549.00;;;13.26;56.09
31357;BME280;60001;48.404;11.738;2023-05-09T05:48:08;96546.38;;;13.36;55.47
31357;BME280;60001;48.404;11.738;2023-05-09T05:49:40;96552.72;;;13.40;55.38
31357;BME280;60001;48.404;11.738;2023-05-09T05:51:13;96552.44;;;13.42;54.14
31357;BME280;60001;48.404;11.738;2023-05-09T05:52:45;96539.72;;;13.29;55.02
31357;BME280;60001;48.404;11.738;2023-05-09T05:54:17;96543.94;;;13.25;53.79
31357;BME280;60001;48.404;11.738;2023-05-09T05:55:48;96530.09;;;13.12;54.71
31357;BME280;60001;48.404;11.738;2023-05-09T05:57:20;96551.66;;;13.41;55.21
31357;BME280;60001;48.404;11.738;2023-05-09T05:58:52;96546.41;;;13.57;55.39
31357;BME280;60001;48.404;11.738;2023-05-09T06:00:24;96541.59;;;13.49;53.93
31357;BME280;60001;48.404;11.738;2023-05-09T06:01:56;96543.50;;;13.63;54.00
31357;BME280;60001;48.404;11.738;2023-05-09T06:03:28;96529.41;;;13.53;54.04
31357;BME280;60001;48.404;11.738;2023-05-09T06:05:00;96548.78;;;13.84;52.88
31357;BME280;60001;48.404;11.738;2023-05-09T06:06:34;96542.66;;;13.88;53.15
31357;BME280;60001;48.404;11.738;2023-05-09T06:08:06;96546.94;;;14.05;52.12
31357;BME280;60001;48.404;11.738;2023-05-09T06:09:38;96546.13;;;13.89;51.35
31357;BME280;60001;48.404;11.738;2023-05-09T06:11:10;96546.38;;;14.03;51.30
31357;BME280;60001;48.404;11.738;2023-05-09T06:12:42;96543.72;;;14.03;50.59
31357;BME280;60001;48.404;11.738;2023-05-09T06:14:13;96529.69;;;13.71;51.77
31357;BME280;60001;48.404;11.738;2023-05-09T06:15:45;96534.19;;;13.91;51.88
31357;BME280;60001;48.404;11.738;2023-05-09T06:17:17;96536.56;;;14.03;51.96
31357;BME280;60001;48.404;11.738;2023-05-09T06:18:49;96533.09;;;14.08;51.78
31357;BME280;60001;48.404;11.738;2023-05-09T06:20:21;96525.94;;;14.03;52.28
31357;BME280;60001;48.404;11.738;2023-05-09T06:21:54;96544.53;;;14.03;52.43
31357;BME280;60001;48.404;11.738;2023-05-09T06:23:26;96532.31;;;14.07;51.79
31357;BME280;60001;48.404;11.738;2023-05-09T06:24:57;96534.16;;;14.27;51.63
31357;BME280;60001;48.404;11.738;2023-05-09T06:26:29;96537.59;;;14.17;50.67
31357;BME280;60001;48.404;11.738;2023-05-09T06:28:01;96540.28;;;14.07;51.02
31357;BME280;60001;48.404;11.738;2023-05-09T06:29:33;96532.31;;;14.12;52.62
31357;BME280;60001;48.404;11.738;2023-05-09T06:31:05;96538.09;;;14.35;53.04
31357;BME280;60001;48.404;11.738;2023-05-09T06:32:36;96530.97;;;14.20;51.93
31357;BME280;60001;48.404;11.738;2023-05-09T06:34:08;96530.13;;;14.40;51.74
31357;BME280;60001;48.404;11.738;2023-05-09T06:35:40;96529.56;;;14.63;50.50
31357;BME280;60001;48.404;11.738;2023-05-09T06:37:13;96516.75;;;14.70;50.59
31357;BME280;60001;48.404;11.738;2023-05-09T06:38:45;96526.53;;;14.85;50.07
31357;BME280;60001;48.404;11.738;2023-05-09T06:40:16;96524.09;;;14.94;50.66
31357;BME280;60001;48.404;11.738;2023-05-09T06:41:48;96511.47;;;14.65;50.54
31357;BME280;60001;48.404;11.738;2023-05-09T06:43:20;96523.84;;;14.90;50.22
31357;BME280;60001;48.404;11.738;2023-05-09T06:44:52;96521.63;;;15.07;49.16
31357;BME280;60001;48.404;11.738;2023-05-09T06:46:23;96496.78;;;14.83;48.82
31357;BME280;60001;48.404;11.738;2023-05-09T06:47:55;96490.91;;;14.81;49.39
31357;BME280;60001;48.404;11.738;2023-05-09T06:49:27;96506.03;;;14.91;50.78
31357;BME280;60001;48.404;11.738;2023-05-09T06:50:59;96492.75;;;14.91;49.97
31357;BME280;60001;48.404;11.738;2023-05-09T06:52:32;96492.91;;;15.10;49.84
31357;BME280;60001;48.404;11.738;2023-05-09T06:54:04;96493.66;;;15.15;51.08
31357;BME280;60001;48.404;11.738;2023-05-09T06:55:36;96491.75;;;15.21;49.62
31357;BME280;60001;48.404;11.738;2023-05-09T06:57:08;96481.38;;;15.24;50.57
31357;BME280;60001;48.404;11.738;2023-05-09T06:58:40;96481.56;;;15.38;49.12
31357;BME280;60001;48.404;11.738;2023-05-09T07:00:13;96484.25;;;15.33;49.55
31357;BME280;60001;48.404;11.738;2023-05-09T07:01:45;96467.16;;;15.39;49.42
31357;BME280;60001;48.404;11.738;2023-05-09T07:03:16;96471.00;;;15.57;49.02
31357;BME280;60001;48.404;11.738;2023-05-09T07:04:48;96452.13;;;15.58;49.16
31357;BME280;60001;48.404;11.738;2023-05-09T07:06:20;96478.06;;;15.77;49.53
31357;BME280;60001;48.404;11.738;2023-05-09T07:07:53;96475.06;;;15.83;48.75
31357;BME280;60001;48.404;11.738;2023-05-09T07:09:26;96467.66;;;15.80;49.30
31357;BME280;60001;48.404;11.738;2023-05-09T07:10:58;96486.81;;;15.82;48.62
31357;BME280;60001;48.404;11.738;2023-05-09T07:12:30;96482.66;;;16.00;47.33
31357;BME280;60001;48.404;11.738;2023-05-09T07:14:02;96471.78;;;15.92;47.14
31357;BME280;60001;48.404;11.738;2023-05-09T07:15:33;96473.44;;;15.87;48.82
31357;BME280;60001;48.404;11.738;2023-05-09T07:19:21;96472.84;;;15.96;47.08
31357;BME280;60001;48.404;11.738;2023-05-09T07:20:53;96478.28;;;16.09;47.99
31357;BME280;60001;48.404;11.738;2023-05-09T07:22:34;96470.75;;;16.16;47.97
31357;BME280;60001;48.404;11.738;2023-05-09T07:24:07;96478.78;;;16.11;48.18
31357;BME280;60001;48.404;11.738;2023-05-09T07:25:39;96484.59;;;16.18;47.87
31357;BME280;60001;48.404;11.738;2023-05-09T07:27:11;96475.84;;;16.13;48.29
31357;BME280;60001;48.404;11.738;2023-05-09T07:28:43;96473.59;;;16.25;47.90
31357;BME280;60001;48.404;11.738;2023-05-09T07:30:15;96465.03;;;16.28;48.08
31357;BME280;60001;48.404;11.738;2023-05-09T07:31:47;96470.13;;;16.25;46.40
31357;BME280;60001;48.404;11.738;2023-05-09T07:33:18;96456.81;;;16.25;46.35
31357;BME280;60001;48.404;11.738;2023-05-09T07:34:50;96466.38;;;16.26;46.72
31357;BME280;60001;48.404;11.738;2023-05-09T07:36:22;96462.97;;;16.20;46.79
31357;BME280;60001;48.404;11.738;2023-05-09T07:37:54;96448.69;;;15.87;47.32
31357;BME280;60001;48.404;11.738;2023-05-09T07:39:27;96459.16;;;16.07;49.15
31357;BME280;60001;48.404;11.738;2023-05-09T07:40:59;96459.59;;;16.14;47.54
31357;BME280;60001;48.404;11.738;2023-05-09T07:42:30;96454.88;;;16.30;47.60
31357;BME280;60001;48.404;11.738;2023-05-09T07:44:02;96449.16;;;16.18;47.65
31357;BME280;60001;48.404;11.738;2023-05-09T07:45:33;96455.50;;;16.46;47.33
31357;BME280;60001;48.404;11.738;2023-05-09T07:47:05;96443.59;;;16.62;47.05
31357;BME280;60001;48.404;11.738;2023-05-09T07:48:38;96432.56;;;16.69;46.06
31357;BME280;60001;48.404;11.738;2023-05-09T07:50:10;96430.72;;;16.69;46.96
31357;BME280;60001;48.404;11.738;2023-05-09T07:51:41;96436.94;;;16.84;46.98
31357;BME280;60001;48.404;11.738;2023-05-09T07:53:13;96429.50;;;16.81;48.01
31357;BME280;60001;48.404;11.738;2023-05-09T07:54:46;96435.69;;;16.95;46.49
31357;BME280;60001;48.404;11.738;2023-05-09T07:56:18;96443.13;;;16.98;46.60
31357;BME280;60001;48.404;11.738;2023-05-09T07:57:50;96428.34;;;17.06;47.44
31357;BME280;60001;48.404;11.738;2023-05-09T07:59:22;96436.72;;;17.18;47.58
31357;BME280;60001;48.404;11.738;2023-05-09T08:00:55;96430.97;;;17.24;47.74
31357;BME280;60001;48.404;11.738;2023-05-09T08:02:26;96432.84;;;17.43;48.02
31357;BME280;60001;48.404;11.738;2023-05-09T08:03:58;96422.28;;;17.19;48.16
31357;BME280;60001;48.404;11.738;2023-05-09T08:05:30;96436.38;;;17.38;47.71
31357;BME280;60001;48.404;11.738;2023-05-09T08:07:02;96425.38;;;17.26;46.97